Time;durP1;ratioP1;P1;durP2;ratioP2;P2;SDS_P1;SDS_P2;PMS_P1;PMS_P2;Temp;Humidity;BMP_temperature;BMP_pressure;BME280_temperature;BME280_humidity;BME280_pressure;Samples;Min_cycle;Max_cycle;Signal;HPM_P1;HPM_P2
2022/05/28 00:01:36;;;;;;;3.15;1.70;;;;;;;;;;5045611;27;95400;-71
2022/05/28 00:04:05;;;;;;;2.67;1.50;;;;;;;;;;5048392;27;98266;-72
2022/05/28 00:06:33;;;;;;;4.88;1.48;;;;;;;;;;5051299;27;97286;-73
2022/05/28 00:08:59;;;;;;;2.72;1.55;;;;;;;;;;5052126;27;95368;-71
2022/05/28 00:11:28;;;;;;;6.57;1.60;;;;;;;;;;5048133;27;96835;-73
2022/05/28 00:13:54;;;;;;;9.65;2.33;;;;;;;;;;5032215;28;97477;-71
2022/05/28 00:16:21;;;;;;;2.75;1.55;;;;;;;;;;5048652;27;95255;-73
2022/05/28 00:18:49;;;;;;;3.03;1.38;;;;;;;;;;5050251;27;97455;-72
2022/05/28 00:21:15;;;;;;;4.40;2.03;;;;;;;;;;5033118;27;95350;-71
2022/05/28 00:23:44;;;;;;;3.55;1.65;;;;;;;;;;5052757;27;96737;-71
2022/05/28 00:26:11;;;;;;;6.80;1.70;;;;;;;;;;5042341;27;97312;-72
2022/05/28 00:28:38;;;;;;;9.15;2.30;;;;;;;;;;5051095;27;95396;-72
2022/05/28 00:31:04;;;;;;;8.50;2.22;;;;;;;;;;5052653;27;96970;-73
2022/05/28 00:33:31;;;;;;;4.57;1.80;;;;;;;;;;5033617;27;97304;-72
2022/05/28 00:35:58;;;;;;;2.45;1.40;;;;;;;;;;5051550;27;95332;-72
2022/05/28 00:38:24;;;;;;;4.57;2.22;;;;;;;;;;5054680;27;96656;-73
2022/05/28 00:40:52;;;;;;;5.95;1.92;;;;;;;;;;5051857;27;95051;-72
2022/05/28 00:43:18;;;;;;;4.13;1.52;;;;;;;;;;5045389;27;96790;-72
2022/05/28 00:45:46;;;;;;;3.83;2.13;;;;;;;;;;5036157;27;97496;-72
2022/05/28 00:48:14;;;;;;;6.28;2.20;;;;;;;;;;5037276;27;95327;-72
2022/05/28 00:50:40;;;;;;;6.97;2.10;;;;;;;;;;5049957;27;96849;-73
2022/05/28 00:53:07;;;;;;;3.58;1.83;;;;;;;;;;5035086;28;97335;-71
2022/05/28 00:55:34;;;;;;;3.15;1.60;;;;;;;;;;5037659;27;95267;-72
2022/05/28 00:58:03;;;;;;;3.97;1.92;;;;;;;;;;5035050;28;96833;-74
2022/05/28 01:00:30;;;;;;;4.43;1.88;;;;;;;;;;5040546;27;97496;-74
2022/05/28 01:03:09;;;;;;;9.43;1.98;;;;;;;;;;5034976;28;97419;-71
2022/05/28 01:05:48;;;;;;;5.00;1.90;;;;;;;;;;5034186;28;96263;-71
2022/05/28 01:08:44;;;;;;;3.13;1.30;;;;;;;;;;5054993;27;95355;-71
2022/05/28 01:11:16;;;;;;;2.65;1.60;;;;;;;;;;5033711;27;96805;-73
2022/05/28 01:13:50;;;;;;;8.68;2.00;;;;;;;;;;5055345;27;97080;-74
2022/05/28 01:16:27;;;;;;;1.80;1.40;;;;;;;;;;5053389;27;97029;-74
2022/05/28 01:18:56;;;;;;;3.75;1.33;;;;;;;;;;5035117;28;96774;-72
2022/05/28 01:21:27;;;;;;;3.72;1.48;;;;;;;;;;5039276;27;97260;-72
2022/05/28 01:24:04;;;;;;;3.15;2.22;;;;;;;;;;5050381;27;95208;-72
2022/05/28 01:26:49;;;;;;;6.05;1.63;;;;;;;;;;5034278;27;97295;-73
2022/05/28 01:29:17;;;;;;;4.95;1.60;;;;;;;;;;5041367;27;95534;-72
2022/05/28 01:31:45;;;;;;;2.55;1.33;;;;;;;;;;5054479;27;96828;-71
2022/05/28 01:34:12;;;;;;;6.20;1.50;;;;;;;;;;5054899;27;97591;-76
2022/05/28 01:36:39;;;;;;;3.42;1.52;;;;;;;;;;5052098;27;95321;-74
2022/05/28 01:39:06;;;;;;;5.20;1.25;;;;;;;;;;5055175;27;97192;-72
2022/05/28 01:41:34;;;;;;;5.13;1.67;;;;;;;;;;5052244;27;97227;-72
2022/05/28 01:44:01;;;;;;;4.32;1.70;;;;;;;;;;5043213;27;95156;-75
2022/05/28 01:46:27;;;;;;;1.70;1.00;;;;;;;;;;5037632;27;96748;-71
2022/05/28 01:48:55;;;;;;;3.60;1.13;;;;;;;;;;5016836;27;95355;-75
2022/05/28 01:51:23;;;;;;;3.58;1.40;;;;;;;;;;5033836;28;96884;-73
2022/05/28 01:54:08;;;;;;;6.78;1.88;;;;;;;;;;5040856;27;97819;-76
2022/05/28 01:56:35;;;;;;;2.50;1.40;;;;;;;;;;5040096;27;95158;-76
2022/05/28 01:59:01;;;;;;;3.05;1.30;;;;;;;;;;5044176;27;96541;-73
2022/05/28 02:01:28;;;;;;;6.95;1.50;;;;;;;;;;5048720;27;97362;-74
2022/05/28 02:03:57;;;;;;;5.53;1.60;;;;;;;;;;5040228;27;95435;-71
2022/05/28 02:06:25;;;;;;;4.13;1.83;;;;;;;;;;5054393;27;96681;-72
2022/05/28 02:08:51;;;;;;;3.53;1.40;;;;;;;;;;5057017;27;97648;-76
2022/05/28 02:11:41;;;;;;;4.15;1.33;;;;;;;;;;5051375;27;96834;-72
2022/05/28 02:14:26;;;;;;;3.45;1.55;;;;;;;;;;5038377;27;97391;-72
2022/05/28 02:16:57;;;;;;;2.03;1.48;;;;;;;;;;5046674;27;95223;-72
2022/05/28 02:19:31;;;;;;;1.60;1.10;;;;;;;;;;5033089;27;96978;-72
2022/05/28 02:22:03;;;;;;;3.08;1.30;;;;;;;;;;5034018;28;97501;-72
2022/05/28 02:24:33;;;;;;;1.95;1.25;;;;;;;;;;5042794;27;96450;-76
2022/05/28 02:27:02;;;;;;;3.53;1.60;;;;;;;;;;5041374;27;97000;-74
2022/05/28 02:29:30;;;;;;;3.88;1.50;;;;;;;;;;5036410;28;97328;-72
2022/05/28 02:31:56;;;;;;;2.78;1.45;;;;;;;;;;5033427;28;96804;-71
2022/05/28 02:34:22;;;;;;;3.53;1.20;;;;;;;;;;5041123;27;97286;-72
2022/05/28 02:36:49;;;;;;;3.60;1.35;;;;;;;;;;5054401;27;95360;-75
2022/05/28 02:39:15;;;;;;;4.60;1.45;;;;;;;;;;5034765;27;97088;-73
2022/05/28 02:41:42;;;;;;;5.05;1.30;;;;;;;;;;5033817;28;97279;-74
2022/05/28 02:44:09;;;;;;;5.00;1.63;;;;;;;;;;5033968;27;95295;-74
2022/05/28 02:46:36;;;;;;;7.28;1.75;;;;;;;;;;5038115;27;96892;-73
2022/05/28 02:49:03;;;;;;;1.88;1.00;;;;;;;;;;5053519;27;97285;-75
2022/05/28 02:51:29;;;;;;;3.42;1.38;;;;;;;;;;5056562;27;95268;-76
2022/05/28 02:53:55;;;;;;;4.85;1.48;;;;;;;;;;5053140;27;97264;-77
2022/05/28 02:56:22;;;;;;;4.50;1.77;;;;;;;;;;5042700;27;95516;-79
2022/05/28 02:58:48;;;;;;;2.58;1.00;;;;;;;;;;5052673;27;96816;-77
2022/05/28 03:01:19;;;;;;;1.60;1.02;;;;;;;;;;5052927;27;97449;-78
2022/05/28 03:03:46;;;;;;;6.70;1.60;;;;;;;;;;5047840;27;95324;-74
2022/05/28 03:06:13;;;;;;;1.88;0.90;;;;;;;;;;5049943;27;95680;-75
2022/05/28 03:08:39;;;;;;;3.35;0.88;;;;;;;;;;5051475;27;97289;-74
2022/05/28 03:11:06;;;;;;;4.10;1.48;;;;;;;;;;5052021;27;95293;-73
2022/05/28 03:13:32;;;;;;;3.20;1.48;;;;;;;;;;5056591;27;96916;-74
2022/05/28 03:15:58;;;;;;;2.03;1.15;;;;;;;;;;5050877;27;95659;-73
2022/05/28 03:18:25;;;;;;;2.63;1.10;;;;;;;;;;5053353;27;96594;-75
2022/05/28 03:20:51;;;;;;;2.90;1.00;;;;;;;;;;5051365;27;97275;-75
2022/05/28 03:23:17;;;;;;;1.52;0.95;;;;;;;;;;5052684;27;95828;-76
2022/05/28 03:25:44;;;;;;;2.25;1.05;;;;;;;;;;5034441;27;96971;-75
2022/05/28 03:28:10;;;;;;;3.08;1.10;;;;;;;;;;5034648;27;97359;-72
2022/05/28 03:30:36;;;;;;;4.07;1.17;;;;;;;;;;5052390;27;95232;-75
2022/05/28 03:33:03;;;;;;;3.80;0.88;;;;;;;;;;5053118;27;96895;-74
2022/05/28 03:35:29;;;;;;;1.80;1.00;;;;;;;;;;5053981;27;97364;-75
2022/05/28 03:37:55;;;;;;;1.05;0.95;;;;;;;;;;5053343;27;96839;-74
2022/05/28 03:40:22;;;;;;;1.25;0.90;;;;;;;;;;5052536;27;97214;-72
2022/05/28 03:42:48;;;;;;;1.38;0.82;;;;;;;;;;5035085;27;95181;-76
2022/05/28 03:45:14;;;;;;;3.53;1.10;;;;;;;;;;5033930;27;96670;-72
2022/05/28 03:47:41;;;;;;;2.95;1.10;;;;;;;;;;5052862;27;97327;-74
2022/05/28 03:50:07;;;;;;;4.22;1.52;;;;;;;;;;5050825;27;95462;-73
2022/05/28 03:52:35;;;;;;;2.05;1.20;;;;;;;;;;5052723;27;96773;-75
2022/05/28 03:55:01;;;;;;;1.67;1.23;;;;;;;;;;5048032;27;97260;-73
2022/05/28 03:57:29;;;;;;;5.82;1.00;;;;;;;;;;5055120;27;95372;-73
2022/05/28 03:59:57;;;;;;;2.38;1.27;;;;;;;;;;5052547;27;97302;-74
2022/05/28 04:02:23;;;;;;;2.50;0.80;;;;;;;;;;5052706;27;95206;-74
2022/05/28 04:04:50;;;;;;;3.05;1.42;;;;;;;;;;5034073;27;95728;-72
2022/05/28 04:07:17;;;;;;;2.08;1.05;;;;;;;;;;5033555;27;97251;-76
2022/05/28 04:09:43;;;;;;;2.90;1.08;;;;;;;;;;5032502;27;95297;-74
2022/05/28 20:22:10;;;;;;;0.70;0.70;;;;;;;;;;5028777;28;95221;-73
2022/05/28 20:24:38;;;;;;;1.55;1.00;;;;;;;;;;5028895;28;97260;-69
2022/05/28 20:27:06;;;;;;;1.35;1.05;;;;;;;;;;5028162;28;95361;-72
2022/05/28 20:29:37;;;;;;;1.02;0.95;;;;;;;;;;5016100;28;96782;-69
2022/05/28 20:32:05;;;;;;;1.50;1.10;;;;;;;;;;5008802;28;97538;-70
2022/05/28 20:34:32;;;;;;;1.17;1.08;;;;;;;;;;5007064;28;95321;-73
2022/05/28 20:36:59;;;;;;;5.32;1.48;;;;;;;;;;5007982;28;96700;-73
2022/05/28 20:39:26;;;;;;;2.13;1.10;;;;;;;;;;5004035;28;97090;-73
2022/05/28 20:41:52;;;;;;;1.40;1.10;;;;;;;;;;5012332;28;95096;-74
2022/05/28 20:44:20;;;;;;;1.60;1.10;;;;;;;;;;5008310;28;97536;-70
2022/05/28 20:46:46;;;;;;;1.58;1.13;;;;;;;;;;5008701;28;95242;-70
2022/05/28 20:49:13;;;;;;;2.47;1.30;;;;;;;;;;5008568;28;95646;-74
2022/05/28 20:51:41;;;;;;;1.13;0.90;;;;;;;;;;5008480;28;98022;-71
2022/05/28 20:54:14;;;;;;;2.45;1.10;;;;;;;;;;4993957;28;95355;-70
2022/05/28 20:56:40;;;;;;;2.20;1.20;;;;;;;;;;5006598;28;96073;-72
2022/05/28 20:59:07;;;;;;;1.77;1.33;;;;;;;;;;5008212;28;97245;-71
2022/05/28 21:01:34;;;;;;;2.30;1.65;;;;;;;;;;5007812;28;95219;-74
2022/05/28 21:04:02;;;;;;;1.17;1.00;;;;;;;;;;5010903;28;95862;-71
2022/05/28 21:06:32;;;;;;;0.90;0.90;;;;;;;;;;5009147;28;95390;-71
2022/05/28 21:08:59;;;;;;;4.78;1.60;;;;;;;;;;5008767;28;96868;-72
2022/05/28 21:11:25;;;;;;;1.52;1.13;;;;;;;;;;4988912;28;97828;-73
2022/05/28 21:13:52;;;;;;;1.73;1.05;;;;;;;;;;5008834;28;95291;-73
2022/05/28 21:16:20;;;;;;;3.50;0.98;;;;;;;;;;5008972;28;96799;-70
2022/05/28 21:18:47;;;;;;;4.78;1.00;;;;;;;;;;5004446;28;97524;-71
2022/05/28 21:21:20;;;;;;;2.20;1.20;;;;;;;;;;5006805;28;95370;-73
2022/05/28 21:23:47;;;;;;;1.10;1.00;;;;;;;;;;5000329;28;98013;-69
2022/05/28 21:31:43;;;;;;;1.27;1.00;;;;;;;;;;5004728;28;97374;-69
2022/05/28 21:34:10;;;;;;;1.38;1.20;;;;;;;;;;4996164;28;95284;-71
2022/05/28 21:36:37;;;;;;;2.03;1.13;;;;;;;;;;4995452;28;96973;-69
2022/05/28 21:39:03;;;;;;;1.38;0.85;;;;;;;;;;4995006;28;97294;-72
2022/05/28 21:41:30;;;;;;;4.28;1.20;;;;;;;;;;4994969;28;95375;-70
2022/05/28 21:43:56;;;;;;;0.98;0.80;;;;;;;;;;4994978;28;95918;-71
2022/05/28 21:46:24;;;;;;;4.30;1.25;;;;;;;;;;4994199;28;96099;-69
2022/05/28 21:48:50;;;;;;;2.13;0.88;;;;;;;;;;4983190;28;95481;-69
2022/05/28 21:51:20;;;;;;;2.20;1.10;;;;;;;;;;4974601;28;97484;-71
2022/05/28 21:53:49;;;;;;;1.95;1.60;;;;;;;;;;4975234;28;95197;-70
2022/05/28 21:56:16;;;;;;;1.55;0.95;;;;;;;;;;4990885;28;96806;-70
2022/05/28 21:58:43;;;;;;;2.75;1.23;;;;;;;;;;4991237;28;97312;-71
2022/05/28 22:01:28;;;;;;;1.17;0.80;;;;;;;;;;4994861;28;95808;-73
2022/05/28 22:03:55;;;;;;;2.17;1.60;;;;;;;;;;4995400;28;96693;-71
2022/05/28 22:06:22;;;;;;;1.23;0.98;;;;;;;;;;4991018;28;97389;-72
2022/05/28 22:08:48;;;;;;;1.90;1.17;;;;;;;;;;4989493;28;96849;-71
2022/05/28 22:11:15;;;;;;;3.05;1.20;;;;;;;;;;4996722;28;96790;-72
2022/05/28 22:13:42;;;;;;;3.58;1.27;;;;;;;;;;4994183;28;95155;-70
2022/05/28 22:16:09;;;;;;;2.03;1.48;;;;;;;;;;4994490;28;96712;-75
2022/05/28 22:18:36;;;;;;;3.33;1.08;;;;;;;;;;4994520;28;97784;-74
2022/05/28 22:21:04;;;;;;;1.67;1.13;;;;;;;;;;4992047;28;95400;-74
2022/05/28 22:23:30;;;;;;;2.00;1.20;;;;;;;;;;4993966;28;97157;-70
2022/05/28 22:26:01;;;;;;;3.85;1.35;;;;;;;;;;4992757;28;97701;-69
2022/05/28 22:28:29;;;;;;;3.13;1.48;;;;;;;;;;4994143;28;95537;-71
2022/05/28 22:30:56;;;;;;;2.05;1.25;;;;;;;;;;4994085;28;96842;-70
2022/05/28 22:33:22;;;;;;;4.47;1.48;;;;;;;;;;4997124;28;95258;-71
2022/05/28 22:35:49;;;;;;;5.68;1.75;;;;;;;;;;4994121;28;96855;-71
2022/05/28 22:38:18;;;;;;;2.67;1.60;;;;;;;;;;4994058;28;97282;-73
2022/05/28 22:40:45;;;;;;;7.68;1.40;;;;;;;;;;4991997;28;95609;-71
2022/05/28 22:43:11;;;;;;;2.40;1.30;;;;;;;;;;4978905;28;97177;-73
2022/05/28 22:45:38;;;;;;;1.95;1.10;;;;;;;;;;4993591;28;97313;-71
2022/05/28 22:48:06;;;;;;;2.47;1.10;;;;;;;;;;4992007;28;95470;-72
2022/05/28 22:50:34;;;;;;;2.17;1.42;;;;;;;;;;4993476;28;96762;-73
2022/05/28 22:53:04;;;;;;;6.38;1.60;;;;;;;;;;4997481;28;97142;-71
2022/05/28 22:55:30;;;;;;;4.32;1.35;;;;;;;;;;4993916;28;95973;-74
2022/05/28 22:57:56;;;;;;;2.55;1.10;;;;;;;;;;4994003;28;97660;-71
2022/05/28 23:00:23;;;;;;;2.40;1.23;;;;;;;;;;4993828;28;95383;-69
2022/05/28 23:02:50;;;;;;;3.60;1.35;;;;;;;;;;4992579;28;95711;-72
2022/05/28 23:05:22;;;;;;;4.15;1.48;;;;;;;;;;4993545;28;97279;-72
2022/05/28 23:07:49;;;;;;;1.92;1.17;;;;;;;;;;4994150;28;95414;-71
2022/05/28 23:10:16;;;;;;;3.42;1.40;;;;;;;;;;4986958;28;96500;-72
2022/05/28 23:12:43;;;;;;;4.90;1.92;;;;;;;;;;4998513;28;97340;-70
2022/05/28 23:15:10;;;;;;;0.95;0.95;;;;;;;;;;5017301;28;96009;-71
2022/05/28 23:17:37;;;;;;;1.67;0.98;;;;;;;;;;4999661;28;97391;-71
2022/05/28 23:20:04;;;;;;;1.65;1.35;;;;;;;;;;4993145;28;95262;-74
2022/05/28 23:28:02;;;;;;;3.70;1.33;;;;;;;;;;4994038;28;95320;-74
2022/05/28 23:30:28;;;;;;;1.10;1.00;;;;;;;;;;4993622;28;96493;-73
2022/05/28 23:32:56;;;;;;;3.60;1.60;;;;;;;;;;4992986;28;97300;-75
2022/05/28 23:35:22;;;;;;;1.10;1.00;;;;;;;;;;4990097;28;96137;-72
2022/05/28 23:37:50;;;;;;;2.53;1.42;;;;;;;;;;4996077;28;96756;-74
2022/05/28 23:40:17;;;;;;;1.20;1.10;;;;;;;;;;4990885;28;95413;-72
2022/05/28 23:42:44;;;;;;;1.90;1.15;;;;;;;;;;4992200;28;96957;-72
2022/05/28 23:45:11;;;;;;;1.67;1.15;;;;;;;;;;4989221;28;97357;-73
2022/05/28 23:47:37;;;;;;;1.67;1.20;;;;;;;;;;4992963;28;95366;-70
2022/05/28 23:50:08;;;;;;;2.28;1.10;;;;;;;;;;4993436;28;96688;-71
2022/05/28 23:52:36;;;;;;;5.83;1.57;;;;;;;;;;4992388;28;97377;-72
2022/05/28 23:55:10;;;;;;;1.42;1.20;;;;;;;;;;4991782;28;95302;-72
2022/05/28 23:57:37;;;;;;;2.55;1.10;;;;;;;;;;4993190;28;96599;-74
